ZGU weather

Gaua Island Airport
Gaua Island, Torba, Vanuatu

Public forecast

Using degrees Celsius for public forecast. Weather courtesy of forecast.io.

METAR (pilot weather report)

Closest report is Sola Airport, 22.2 nm (41.1 km) N. Retrieved 2019/06/27 06:00 UTC (11 minutes ago):

NVSC 270600Z 00000KT 9999 SCT018 FEW022CB OVC040 26/24 Q1012

TAF (pilot weather forecast)

Closest forecast is Sola Airport, 22.2 nm (41.1 km) N. Retrieved 2019/06/27 06:26 UTC (0 seconds ago):

TAF NVSC 270430Z 2706/2806 12005KT 8000 FEW008 SCT018 OVC110 INTER 2706/2712 7000 -RA FEW006 BKN016 OVC098